sensor_id;sensor_type;location;lat;lon;timestamp;pressure;altitude;pressure_sealevel;temperature;humidity
59829;BME280;45708;51.848;107.620;2024-03-08T00:02:01;95023.03;;;-15.36;66.69
59829;BME280;45708;51.848;107.620;2024-03-08T00:07:02;94944.75;;;-15.41;67.21
59829;BME280;45708;51.848;107.620;2024-03-08T00:12:03;94900.22;;;-14.21;66.19
59829;BME280;45708;51.848;107.620;2024-03-08T00:17:04;94931.19;;;-12.08;64.93
59829;BME280;45708;51.848;107.620;2024-03-08T00:22:05;95050.25;;;-9.84;63.57
59829;BME280;45708;51.848;107.620;2024-03-08T00:27:05;94949.09;;;-9.23;63.60
59829;BME280;45708;51.848;107.620;2024-03-08T00:32:06;95019.03;;;-8.11;61.87
59829;BME280;45708;51.848;107.620;2024-03-08T00:37:07;95031.84;;;-7.63;61.22
59829;BME280;45708;51.848;107.620;2024-03-08T00:42:08;95055.63;;;-6.91;60.77
59829;BME280;45708;51.848;107.620;2024-03-08T00:47:09;95033.94;;;-6.76;60.81
59829;BME280;45708;51.848;107.620;2024-03-08T00:52:10;95065.88;;;-5.79;59.77
59829;BME280;45708;51.848;107.620;2024-03-08T00:57:11;95040.31;;;-5.28;58.86
59829;BME280;45708;51.848;107.620;2024-03-08T01:02:12;95018.47;;;-4.61;58.31
59829;BME280;45708;51.848;107.620;2024-03-08T01:07:13;95074.78;;;-3.55;56.29
59829;BME280;45708;51.848;107.620;2024-03-08T01:12:13;95035.94;;;-3.44;55.83
59829;BME280;45708;51.848;107.620;2024-03-08T01:17:14;95005.31;;;-3.00;55.26
59829;BME280;45708;51.848;107.620;2024-03-08T01:22:15;95066.94;;;-3.15;54.68
59829;BME280;45708;51.848;107.620;2024-03-08T01:27:16;95081.28;;;-3.61;54.78
59829;BME280;45708;51.848;107.620;2024-03-08T01:32:17;95079.09;;;-3.65;53.82
59829;BME280;45708;51.848;107.620;2024-03-08T01:37:17;95085.97;;;-3.26;53.71
59829;BME280;45708;51.848;107.620;2024-03-08T01:42:18;95069.94;;;-3.89;52.95
59829;BME280;45708;51.848;107.620;2024-03-08T01:47:19;95064.78;;;-4.29;53.02
59829;BME280;45708;51.848;107.620;2024-03-08T01:52:20;95071.59;;;-3.88;52.53
59829;BME280;45708;51.848;107.620;2024-03-08T01:57:21;95014.16;;;-3.80;52.16
59829;BME280;45708;51.848;107.620;2024-03-08T02:02:22;95060.69;;;-3.13;51.29
59829;BME280;45708;51.848;107.620;2024-03-08T02:07:24;95084.34;;;-2.79;51.48
59829;BME280;45708;51.848;107.620;2024-03-08T02:12:24;95041.91;;;-3.53;50.87
59829;BME280;45708;51.848;107.620;2024-03-08T02:17:25;95091.50;;;-5.34;51.69
59829;BME280;45708;51.848;107.620;2024-03-08T02:22:27;95090.41;;;-6.98;53.41
59829;BME280;45708;51.848;107.620;2024-03-08T02:27:28;95084.69;;;-7.60;54.19
59829;BME280;45708;51.848;107.620;2024-03-08T02:32:29;95082.03;;;-7.95;55.01
59829;BME280;45708;51.848;107.620;2024-03-08T02:37:29;95079.53;;;-8.21;55.08
59829;BME280;45708;51.848;107.620;2024-03-08T02:42:30;95072.19;;;-8.02;55.67
59829;BME280;45708;51.848;107.620;2024-03-08T02:47:32;95084.50;;;-8.07;55.00
59829;BME280;45708;51.848;107.620;2024-03-08T02:52:34;95088.25;;;-8.23;55.56
59829;BME280;45708;51.848;107.620;2024-03-08T02:57:35;95083.53;;;-8.17;55.81
59829;BME280;45708;51.848;107.620;2024-03-08T03:02:36;95066.31;;;-8.15;56.14
59829;BME280;45708;51.848;107.620;2024-03-08T03:07:41;95060.94;;;-7.99;56.66
59829;BME280;45708;51.848;107.620;2024-03-08T03:12:41;95049.34;;;-8.05;56.33
59829;BME280;45708;51.848;107.620;2024-03-08T03:17:50;95073.19;;;-7.91;56.80
59829;BME280;45708;51.848;107.620;2024-03-08T03:22:51;95035.94;;;-7.84;56.62
59829;BME280;45708;51.848;107.620;2024-03-08T03:27:52;95010.13;;;-7.70;57.00
59829;BME280;45708;51.848;107.620;2024-03-08T03:32:53;95076.13;;;-7.02;57.07
59829;BME280;45708;51.848;107.620;2024-03-08T03:37:54;95039.72;;;-7.07;56.26
59829;BME280;45708;51.848;107.620;2024-03-08T03:42:55;95020.16;;;-6.86;56.10
59829;BME280;45708;51.848;107.620;2024-03-08T03:47:56;95069.94;;;-6.31;57.17
59829;BME280;45708;51.848;107.620;2024-03-08T03:52:57;95005.69;;;-6.31;56.21
59829;BME280;45708;51.848;107.620;2024-03-08T03:57:58;95050.22;;;-5.87;56.71
59829;BME280;45708;51.848;107.620;2024-03-08T04:02:59;95018.59;;;-5.99;57.54
59829;BME280;45708;51.848;107.620;2024-03-08T04:08:00;94991.84;;;-5.75;56.45
59829;BME280;45708;51.848;107.620;2024-03-08T04:13:01;95046.84;;;-5.24;56.67
59829;BME280;45708;51.848;107.620;2024-03-08T04:18:02;95038.31;;;-5.03;57.49
59829;BME280;45708;51.848;107.620;2024-03-08T04:23:03;94913.59;;;-5.73;57.01
59829;BME280;45708;51.848;107.620;2024-03-08T04:28:04;94996.13;;;-5.12;56.51
59829;BME280;45708;51.848;107.620;2024-03-08T04:33:05;94998.28;;;-4.86;56.80
59829;BME280;45708;51.848;107.620;2024-03-08T04:38:06;94974.78;;;-4.72;56.33
59829;BME280;45708;51.848;107.620;2024-03-08T04:43:07;94997.53;;;-4.47;57.12
59829;BME280;45708;51.848;107.620;2024-03-08T04:48:09;94964.13;;;-4.58;56.73
59829;BME280;45708;51.848;107.620;2024-03-08T04:53:10;95004.44;;;-4.17;56.80
59829;BME280;45708;51.848;107.620;2024-03-08T04:58:11;94979.63;;;-3.89;56.75
59829;BME280;45708;51.848;107.620;2024-03-08T05:03:11;94995.41;;;-3.73;56.50
59829;BME280;45708;51.848;107.620;2024-03-08T05:08:12;94982.50;;;-3.73;56.04
59829;BME280;45708;51.848;107.620;2024-03-08T05:13:13;94978.84;;;-3.70;55.72
59829;BME280;45708;51.848;107.620;2024-03-08T05:18:14;94990.53;;;-3.66;55.23
59829;BME280;45708;51.848;107.620;2024-03-08T05:23:15;94938.75;;;-3.93;55.43
59829;BME280;45708;51.848;107.620;2024-03-08T05:28:15;94881.72;;;-4.10;55.08
59829;BME280;45708;51.848;107.620;2024-03-08T05:33:17;94964.13;;;-3.12;54.93
59829;BME280;45708;51.848;107.620;2024-03-08T05:38:18;94889.72;;;-3.64;54.70
59829;BME280;45708;51.848;107.620;2024-03-08T05:43:19;94903.97;;;-3.51;55.15
59829;BME280;45708;51.848;107.620;2024-03-08T05:48:20;94907.91;;;-3.37;54.45
59829;BME280;45708;51.848;107.620;2024-03-08T05:53:21;94937.06;;;-3.08;54.88
59829;BME280;45708;51.848;107.620;2024-03-08T05:58:22;94916.78;;;-3.02;54.65
59829;BME280;45708;51.848;107.620;2024-03-08T06:03:23;94932.53;;;-2.86;54.09
59829;BME280;45708;51.848;107.620;2024-03-08T06:08:24;94892.56;;;-3.01;53.58
59829;BME280;45708;51.848;107.620;2024-03-08T06:13:25;94835.03;;;-3.31;53.97
59829;BME280;45708;51.848;107.620;2024-03-08T06:18:26;94879.66;;;-3.01;53.44
59829;BME280;45708;51.848;107.620;2024-03-08T06:23:26;94902.16;;;-2.84;53.24
59829;BME280;45708;51.848;107.620;2024-03-08T06:28:27;94903.66;;;-2.82;53.91
59829;BME280;45708;51.848;107.620;2024-03-08T06:33:28;94917.59;;;-2.65;53.65
59829;BME280;45708;51.848;107.620;2024-03-08T06:38:29;94921.81;;;-2.64;53.75
59829;BME280;45708;51.848;107.620;2024-03-08T06:43:30;94915.03;;;-2.65;53.64
59829;BME280;45708;51.848;107.620;2024-03-08T06:48:31;94840.88;;;-2.92;53.31
59829;BME280;45708;51.848;107.620;2024-03-08T06:53:33;94889.94;;;-2.55;53.37
59829;BME280;45708;51.848;107.620;2024-03-08T06:58:33;94865.53;;;-2.70;53.22
59829;BME280;45708;51.848;107.620;2024-03-08T07:03:34;94909.63;;;-2.44;52.82
59829;BME280;45708;51.848;107.620;2024-03-08T07:08:35;94850.50;;;-2.57;52.87
59829;BME280;45708;51.848;107.620;2024-03-08T07:13:37;94897.34;;;-2.15;52.80
59829;BME280;45708;51.848;107.620;2024-03-08T07:18:38;94878.41;;;-2.15;52.49
59829;BME280;45708;51.848;107.620;2024-03-08T07:23:39;94858.44;;;-2.23;52.75
59829;BME280;45708;51.848;107.620;2024-03-08T07:28:40;94846.84;;;-2.36;52.39
59829;BME280;45708;51.848;107.620;2024-03-08T07:33:40;94801.22;;;-2.55;52.59
59829;BME280;45708;51.848;107.620;2024-03-08T07:38:41;94875.44;;;-2.02;52.77
59829;BME280;45708;51.848;107.620;2024-03-08T07:43:42;94847.13;;;-2.04;52.64
59829;BME280;45708;51.848;107.620;2024-03-08T07:48:43;94875.16;;;-1.81;52.89
59829;BME280;45708;51.848;107.620;2024-03-08T07:53:44;94859.41;;;-2.06;52.34
59829;BME280;45708;51.848;107.620;2024-03-08T07:58:47;94858.44;;;-2.05;52.72
59829;BME280;45708;51.848;107.620;2024-03-08T08:03:48;94777.19;;;-2.48;52.21
59829;BME280;45708;51.848;107.620;2024-03-08T08:08:49;94853.38;;;-1.97;52.88
59829;BME280;45708;51.848;107.620;2024-03-08T08:13:50;94839.81;;;-1.91;52.54
59829;BME280;45708;51.848;107.620;2024-03-08T08:18:51;94788.72;;;-2.24;52.75
59829;BME280;45708;51.848;107.620;2024-03-08T08:23:52;94805.50;;;-2.10;53.07
59829;BME280;45708;51.848;107.620;2024-03-08T08:28:52;94739.38;;;-2.49;52.69
59829;BME280;45708;51.848;107.620;2024-03-08T08:33:53;94784.91;;;-2.20;52.38
59829;BME280;45708;51.848;107.620;2024-03-08T08:38:54;94869.16;;;-1.64;52.66
59829;BME280;45708;51.848;107.620;2024-03-08T08:43:55;94742.31;;;-2.43;52.73
59829;BME280;45708;51.848;107.620;2024-03-08T08:48:56;94851.50;;;-1.87;52.21
59829;BME280;45708;51.848;107.620;2024-03-08T08:53:56;94850.78;;;-1.97;52.18
59829;BME280;45708;51.848;107.620;2024-03-08T08:58:57;94819.72;;;-2.15;52.48
59829;BME280;45708;51.848;107.620;2024-03-08T09:03:58;94832.41;;;-2.21;52.45
59829;BME280;45708;51.848;107.620;2024-03-08T09:08:59;94787.31;;;-2.54;52.26
59829;BME280;45708;51.848;107.620;2024-03-08T09:14:00;94880.88;;;-1.96;51.85
59829;BME280;45708;51.848;107.620;2024-03-08T09:19:00;94769.19;;;-2.72;52.18
59829;BME280;45708;51.848;107.620;2024-03-08T09:24:01;94768.25;;;-2.71;51.70
59829;BME280;45708;51.848;107.620;2024-03-08T09:29:02;94869.31;;;-2.19;51.94
59829;BME280;45708;51.848;107.620;2024-03-08T09:34:03;94803.13;;;-2.57;52.03
59829;BME280;45708;51.848;107.620;2024-03-08T09:39:04;94824.63;;;-2.57;52.15
59829;BME280;45708;51.848;107.620;2024-03-08T09:44:05;94883.72;;;-2.34;52.21
59829;BME280;45708;51.848;107.620;2024-03-08T09:49:06;94842.63;;;-2.65;52.63
59829;BME280;45708;51.848;107.620;2024-03-08T09:54:07;94796.97;;;-3.01;52.48
59829;BME280;45708;51.848;107.620;2024-03-08T09:59:08;94800.91;;;-2.97;52.06
59829;BME280;45708;51.848;107.620;2024-03-08T10:04:09;94897.19;;;-2.58;52.83
59829;BME280;45708;51.848;107.620;2024-03-08T10:09:10;94859.38;;;-2.96;52.57
59829;BME280;45708;51.848;107.620;2024-03-08T10:14:11;94859.47;;;-3.16;52.51
59829;BME280;45708;51.848;107.620;2024-03-08T10:19:12;94805.47;;;-3.65;52.86
59829;BME280;45708;51.848;107.620;2024-03-08T10:24:13;94871.06;;;-3.39;52.97
59829;BME280;45708;51.848;107.620;2024-03-08T10:29:14;94906.53;;;-3.41;53.55
59829;BME280;45708;51.848;107.620;2024-03-08T10:34:15;94869.34;;;-3.77;53.93
59829;BME280;45708;51.848;107.620;2024-03-08T10:39:25;94881.97;;;-4.03;53.45
59829;BME280;45708;51.848;107.620;2024-03-08T10:44:32;94920.69;;;-3.93;53.94
59829;BME280;45708;51.848;107.620;2024-03-08T10:49:38;94892.13;;;-4.21;54.00
59829;BME280;45708;51.848;107.620;2024-03-08T10:54:42;94920.91;;;-4.25;54.07
59829;BME280;45708;51.848;107.620;2024-03-08T10:59:44;94852.38;;;-4.87;54.37
59829;BME280;45708;51.848;107.620;2024-03-08T11:04:46;94905.88;;;-4.70;54.29
59829;BME280;45708;51.848;107.620;2024-03-08T11:09:48;94842.50;;;-5.23;54.26
59829;BME280;45708;51.848;107.620;2024-03-08T11:14:50;94950.63;;;-4.71;55.14
59829;BME280;45708;51.848;107.620;2024-03-08T11:19:51;94911.97;;;-5.02;55.15
59829;BME280;45708;51.848;107.620;2024-03-08T11:25:02;94909.38;;;-5.11;55.23
59829;BME280;45708;51.848;107.620;2024-03-08T11:30:05;94957.88;;;-4.86;54.63
59829;BME280;45708;51.848;107.620;2024-03-08T11:35:07;94961.09;;;-4.94;55.32
59829;BME280;45708;51.848;107.620;2024-03-08T11:40:12;94911.28;;;-5.34;55.30
59829;BME280;45708;51.848;107.620;2024-03-08T11:45:14;94911.22;;;-5.44;55.42
59829;BME280;45708;51.848;107.620;2024-03-08T11:50:15;94939.91;;;-5.48;55.58
59829;BME280;45708;51.848;107.620;2024-03-08T11:55:16;94944.63;;;-5.54;56.76
59829;BME280;45708;51.848;107.620;2024-03-08T12:00:19;94917.16;;;-5.85;56.28
59829;BME280;45708;51.848;107.620;2024-03-08T12:05:20;94891.25;;;-6.14;56.55
59829;BME280;45708;51.848;107.620;2024-03-08T12:10:21;94864.69;;;-6.47;57.23
59829;BME280;45708;51.848;107.620;2024-03-08T12:15:23;94987.53;;;-5.86;56.08
59829;BME280;45708;51.848;107.620;2024-03-08T12:20:26;94935.53;;;-6.22;56.29
59829;BME280;45708;51.848;107.620;2024-03-08T12:25:31;94957.03;;;-6.23;57.21
59829;BME280;45708;51.848;107.620;2024-03-08T12:30:32;94955.00;;;-6.40;56.90
59829;BME280;45708;51.848;107.620;2024-03-08T12:35:33;94894.19;;;-6.84;57.56
59829;BME280;45708;51.848;107.620;2024-03-08T12:40:34;94995.38;;;-6.31;57.16
59829;BME280;45708;51.848;107.620;2024-03-08T12:45:35;94953.28;;;-6.73;57.42
59829;BME280;45708;51.848;107.620;2024-03-08T12:50:36;94883.81;;;-7.27;57.42
59829;BME280;45708;51.848;107.620;2024-03-08T12:55:37;94972.75;;;-6.82;57.45
59829;BME280;45708;51.848;107.620;2024-03-08T13:00:37;94975.09;;;-6.90;58.67
59829;BME280;45708;51.848;107.620;2024-03-08T13:05:38;94913.94;;;-7.41;57.95
59829;BME280;45708;51.848;107.620;2024-03-08T13:10:40;95028.34;;;-6.81;58.50
59829;BME280;45708;51.848;107.620;2024-03-08T13:15:41;94975.19;;;-7.02;58.42
59829;BME280;45708;51.848;107.620;2024-03-08T13:20:42;95010.47;;;-6.93;58.28
59829;BME280;45708;51.848;107.620;2024-03-08T13:25:43;94977.72;;;-7.25;59.56
59829;BME280;45708;51.848;107.620;2024-03-08T13:30:44;94985.66;;;-7.28;59.20
59829;BME280;45708;51.848;107.620;2024-03-08T13:35:45;94996.63;;;-7.37;59.34
59829;BME280;45708;51.848;107.620;2024-03-08T13:40:46;94929.88;;;-7.94;58.40
59829;BME280;45708;51.848;107.620;2024-03-08T13:45:47;95005.78;;;-7.57;59.75
59829;BME280;45708;51.848;107.620;2024-03-08T13:50:49;94978.88;;;-7.75;59.63
59829;BME280;45708;51.848;107.620;2024-03-08T13:55:50;94945.06;;;-8.04;60.16
59829;BME280;45708;51.848;107.620;2024-03-08T14:00:51;95006.28;;;-7.76;59.95
59829;BME280;45708;51.848;107.620;2024-03-08T14:05:52;95021.81;;;-7.66;59.41
59829;BME280;45708;51.848;107.620;2024-03-08T14:10:52;94993.41;;;-7.87;59.58
59829;BME280;45708;51.848;107.620;2024-03-08T14:15:53;94989.53;;;-7.92;60.09
59829;BME280;45708;51.848;107.620;2024-03-08T14:20:54;95030.22;;;-7.88;60.18
59829;BME280;45708;51.848;107.620;2024-03-08T14:25:55;94981.25;;;-8.20;60.24
59829;BME280;45708;51.848;107.620;2024-03-08T14:30:56;94965.47;;;-8.27;60.44
59829;BME280;45708;51.848;107.620;2024-03-08T14:35:57;94991.06;;;-8.14;59.74
59829;BME280;45708;51.848;107.620;2024-03-08T14:40:58;94976.75;;;-8.40;60.13
59829;BME280;45708;51.848;107.620;2024-03-08T14:45:59;94984.13;;;-8.48;60.56
59829;BME280;45708;51.848;107.620;2024-03-08T14:50:59;94974.88;;;-8.75;60.17
59829;BME280;45708;51.848;107.620;2024-03-08T14:56:00;95021.34;;;-8.55;60.89
59829;BME280;45708;51.848;107.620;2024-03-08T15:01:01;95022.16;;;-8.68;60.36
59829;BME280;45708;51.848;107.620;2024-03-08T15:06:02;94937.88;;;-9.33;60.58
59829;BME280;45708;51.848;107.620;2024-03-08T15:11:04;94935.38;;;-9.22;60.82
59829;BME280;45708;51.848;107.620;2024-03-08T15:16:06;95031.47;;;-8.67;60.75
59829;BME280;45708;51.848;107.620;2024-03-08T15:21:07;94934.59;;;-9.35;60.89
59829;BME280;45708;51.848;107.620;2024-03-08T15:26:10;94962.22;;;-9.14;61.33
59829;BME280;45708;51.848;107.620;2024-03-08T15:31:11;94996.28;;;-9.01;60.94
59829;BME280;45708;51.848;107.620;2024-03-08T15:36:12;95003.56;;;-9.08;60.97
59829;BME280;45708;51.848;107.620;2024-03-08T15:41:13;94969.38;;;-9.32;60.74
59829;BME280;45708;51.848;107.620;2024-03-08T15:46:14;94999.88;;;-9.16;61.77
59829;BME280;45708;51.848;107.620;2024-03-08T15:51:15;95038.34;;;-9.05;61.11
59829;BME280;45708;51.848;107.620;2024-03-08T15:56:16;95021.97;;;-9.28;60.99
59829;BME280;45708;51.848;107.620;2024-03-08T16:01:17;94993.09;;;-9.43;61.49
59829;BME280;45708;51.848;107.620;2024-03-08T16:06:18;95030.25;;;-9.25;61.20
59829;BME280;45708;51.848;107.620;2024-03-08T16:11:19;95014.38;;;-9.42;62.04
59829;BME280;45708;51.848;107.620;2024-03-08T16:16:20;94987.75;;;-9.65;62.11
59829;BME280;45708;51.848;107.620;2024-03-08T16:21:21;95045.50;;;-9.36;60.97
59829;BME280;45708;51.848;107.620;2024-03-08T16:26:22;95018.97;;;-9.47;61.16
59829;BME280;45708;51.848;107.620;2024-03-08T16:31:22;95003.50;;;-9.71;61.66
59829;BME280;45708;51.848;107.620;2024-03-08T16:36:23;95037.06;;;-9.51;61.71
59829;BME280;45708;51.848;107.620;2024-03-08T16:41:24;95051.19;;;-9.58;62.03
59829;BME280;45708;51.848;107.620;2024-03-08T16:46:25;94935.69;;;-10.29;62.41
59829;BME280;45708;51.848;107.620;2024-03-08T16:51:26;95014.31;;;-9.80;62.18
59829;BME280;45708;51.848;107.620;2024-03-08T16:56:27;95004.00;;;-10.06;61.33
59829;BME280;45708;51.848;107.620;2024-03-08T17:01:28;95044.09;;;-9.94;61.28
59829;BME280;45708;51.848;107.620;2024-03-08T17:06:28;94934.09;;;-10.71;61.99
59829;BME280;45708;51.848;107.620;2024-03-08T17:11:29;95055.38;;;-10.10;62.49
59829;BME280;45708;51.848;107.620;2024-03-08T17:16:30;95005.69;;;-10.46;62.67
59829;BME280;45708;51.848;107.620;2024-03-08T17:21:32;94959.00;;;-10.75;62.17
59829;BME280;45708;51.848;107.620;2024-03-08T17:26:33;95039.69;;;-10.31;61.56
59829;BME280;45708;51.848;107.620;2024-03-08T17:31:34;95050.28;;;-10.37;62.63
59829;BME280;45708;51.848;107.620;2024-03-08T17:36:35;95042.25;;;-10.46;61.92
59829;BME280;45708;51.848;107.620;2024-03-08T17:41:36;95014.56;;;-10.66;62.07
59829;BME280;45708;51.848;107.620;2024-03-08T17:46:36;95049.47;;;-10.52;63.24
59829;BME280;45708;51.848;107.620;2024-03-08T17:51:38;94979.25;;;-11.00;62.93
59829;BME280;45708;51.848;107.620;2024-03-08T17:56:40;94989.19;;;-11.10;62.18
59829;BME280;45708;51.848;107.620;2024-03-08T18:01:41;95024.25;;;-10.85;62.15
59829;BME280;45708;51.848;107.620;2024-03-08T18:06:41;95031.88;;;-10.85;62.30
59829;BME280;45708;51.848;107.620;2024-03-08T18:11:42;95067.28;;;-10.79;62.29
59829;BME280;45708;51.848;107.620;2024-03-08T18:16:43;95053.22;;;-10.86;63.62
59829;BME280;45708;51.848;107.620;2024-03-08T18:21:44;95032.63;;;-11.12;62.39
59829;BME280;45708;51.848;107.620;2024-03-08T18:26:45;94954.25;;;-11.67;63.54
59829;BME280;45708;51.848;107.620;2024-03-08T18:31:48;95055.47;;;-11.10;63.20
59829;BME280;45708;51.848;107.620;2024-03-08T18:36:48;95056.66;;;-11.16;63.96
59829;BME280;45708;51.848;107.620;2024-03-08T18:41:49;95012.03;;;-11.37;63.77
59829;BME280;45708;51.848;107.620;2024-03-08T18:46:50;95018.53;;;-11.47;63.29
59829;BME280;45708;51.848;107.620;2024-03-08T18:51:51;94997.78;;;-11.55;64.03
59829;BME280;45708;51.848;107.620;2024-03-08T18:56:52;95050.25;;;-11.23;63.53
59829;BME280;45708;51.848;107.620;2024-03-08T19:01:53;94942.16;;;-11.91;62.83
59829;BME280;45708;51.848;107.620;2024-03-08T19:06:53;95047.81;;;-11.24;63.11
59829;BME280;45708;51.848;107.620;2024-03-08T19:11:54;95048.81;;;-11.27;63.08
59829;BME280;45708;51.848;107.620;2024-03-08T19:16:55;95046.34;;;-11.28;64.34
59829;BME280;45708;51.848;107.620;2024-03-08T19:21:56;94999.78;;;-11.60;63.36
59829;BME280;45708;51.848;107.620;2024-03-08T19:26:57;95063.34;;;-11.43;64.03
59829;BME280;45708;51.848;107.620;2024-03-08T19:31:57;95023.41;;;-11.73;63.98
59829;BME280;45708;51.848;107.620;2024-03-08T19:36:58;95060.78;;;-11.57;63.90
59829;BME280;45708;51.848;107.620;2024-03-08T19:41:59;94959.59;;;-12.30;64.33
59829;BME280;45708;51.848;107.620;2024-03-08T19:47:00;95036.03;;;-11.85;63.46
59829;BME280;45708;51.848;107.620;2024-03-08T19:52:01;95037.94;;;-11.89;64.13
59829;BME280;45708;51.848;107.620;2024-03-08T19:57:02;95049.59;;;-11.85;64.05
59829;BME280;45708;51.848;107.620;2024-03-08T20:02:03;95039.50;;;-12.02;63.85
59829;BME280;45708;51.848;107.620;2024-03-08T20:07:04;95053.84;;;-12.00;64.64
59829;BME280;45708;51.848;107.620;2024-03-08T20:12:05;94992.84;;;-12.48;64.77
59829;BME280;45708;51.848;107.620;2024-03-08T20:17:06;95067.31;;;-12.13;64.23
59829;BME280;45708;51.848;107.620;2024-03-08T20:22:06;95064.34;;;-12.21;64.65
59829;BME280;45708;51.848;107.620;2024-03-08T20:27:07;95032.41;;;-12.43;64.31
59829;BME280;45708;51.848;107.620;2024-03-08T20:32:08;95025.63;;;-12.58;64.15
59829;BME280;45708;51.848;107.620;2024-03-08T20:37:09;95052.19;;;-12.48;65.00
59829;BME280;45708;51.848;107.620;2024-03-08T20:42:10;95061.22;;;-12.42;64.58
59829;BME280;45708;51.848;107.620;2024-03-08T20:47:11;95006.25;;;-12.76;64.55
59829;BME280;45708;51.848;107.620;2024-03-08T20:52:11;95056.31;;;-12.61;64.44
59829;BME280;45708;51.848;107.620;2024-03-08T20:57:12;95047.91;;;-12.63;64.81
59829;BME280;45708;51.848;107.620;2024-03-08T21:02:13;95024.78;;;-12.74;64.81
59829;BME280;45708;51.848;107.620;2024-03-08T21:07:14;94966.59;;;-13.12;64.82
59829;BME280;45708;51.848;107.620;2024-03-08T21:12:15;94959.47;;;-13.21;64.92
59829;BME280;45708;51.848;107.620;2024-03-08T21:17:15;95061.22;;;-12.58;64.94
59829;BME280;45708;51.848;107.620;2024-03-08T21:22:16;94959.47;;;-13.21;64.96
59829;BME280;45708;51.848;107.620;2024-03-08T21:27:17;95047.19;;;-12.65;64.82
59829;BME280;45708;51.848;107.620;2024-03-08T21:32:18;95044.63;;;-12.65;65.17
59829;BME280;45708;51.848;107.620;2024-03-08T21:37:19;94943.06;;;-13.31;65.07
59829;BME280;45708;51.848;107.620;2024-03-08T21:42:20;95043.31;;;-12.72;64.79
59829;BME280;45708;51.848;107.620;2024-03-08T21:47:21;95038.69;;;-12.81;65.27
59829;BME280;45708;51.848;107.620;2024-03-08T21:52:23;94966.81;;;-13.32;64.80
59829;BME280;45708;51.848;107.620;2024-03-08T21:57:23;94960.03;;;-13.32;65.44
59829;BME280;45708;51.848;107.620;2024-03-08T22:02:24;95031.97;;;-12.98;65.31
59829;BME280;45708;51.848;107.620;2024-03-08T22:07:25;94987.72;;;-13.27;65.15
59829;BME280;45708;51.848;107.620;2024-03-08T22:12:26;95083.19;;;-12.73;65.44
59829;BME280;45708;51.848;107.620;2024-03-08T22:17:27;95075.81;;;-12.77;66.43
59829;BME280;45708;51.848;107.620;2024-03-08T22:22:28;95038.25;;;-13.05;66.05
59829;BME280;45708;51.848;107.620;2024-03-08T22:27:29;95007.31;;;-13.29;65.62
59829;BME280;45708;51.848;107.620;2024-03-08T22:32:30;95080.28;;;-12.82;65.94
59829;BME280;45708;51.848;107.620;2024-03-08T22:37:31;94989.28;;;-13.40;66.10
59829;BME280;45708;51.848;107.620;2024-03-08T22:42:32;94890.91;;;-14.04;66.22
59829;BME280;45708;51.848;107.620;2024-03-08T22:47:34;94968.81;;;-13.55;65.60
59829;BME280;45708;51.848;107.620;2024-03-08T22:52:35;94983.59;;;-13.63;66.02
59829;BME280;45708;51.848;107.620;2024-03-08T22:57:36;95035.00;;;-13.40;65.88
59829;BME280;45708;51.848;107.620;2024-03-08T23:02:36;95093.28;;;-13.04;66.02
59829;BME280;45708;51.848;107.620;2024-03-08T23:07:37;95030.28;;;-13.48;65.71
59829;BME280;45708;51.848;107.620;2024-03-08T23:12:38;95095.00;;;-13.05;65.98
59829;BME280;45708;51.848;107.620;2024-03-08T23:17:46;94995.50;;;-13.63;65.98
59829;BME280;45708;51.848;107.620;2024-03-08T23:22:48;94989.47;;;-13.61;66.04
59829;BME280;45708;51.848;107.620;2024-03-08T23:27:54;94991.84;;;-13.58;66.11
59829;BME280;45708;51.848;107.620;2024-03-08T23:32:56;95041.31;;;-12.99;66.24
59829;BME280;45708;51.848;107.620;2024-03-08T23:37:57;95110.81;;;-12.49;66.07
59829;BME280;45708;51.848;107.620;2024-03-08T23:42:58;95072.94;;;-12.71;66.19
59829;BME280;45708;51.848;107.620;2024-03-08T23:47:59;95113.59;;;-12.22;65.83
59829;BME280;45708;51.848;107.620;2024-03-08T23:53:01;95003.63;;;-12.75;65.80
59829;BME280;45708;51.848;107.620;2024-03-08T23:58:05;95066.66;;;-12.17;66.55
